createdAt,value
2019-06-15T11:48:23.266Z,90.40
2019-06-15T17:17:10.649Z,91.10
2019-06-15T17:33:38.811Z,91.80
2019-06-15T17:42:57.401Z,91.60
2019-06-15T17:53:22.328Z,91.90
2019-06-15T17:56:17.456Z,91.90
2019-06-15T18:03:32.015Z,92.00
2019-06-15T18:29:00.428Z,93.10
2019-06-15T18:31:49.676Z,93.30
2019-06-15T18:35:02.095Z,93.20
2019-06-15T18:38:14.575Z,93.00
2019-06-15T18:40:47.898Z,93.30
2019-06-15T18:43:20.187Z,93.40
2019-06-15T18:45:52.442Z,93.60
2019-06-15T18:48:26.375Z,93.90
2019-06-15T18:50:58.817Z,94.00
2019-06-15T18:53:32.001Z,94.00
2019-06-15T18:56:04.249Z,94.10
2019-06-15T18:58:37.331Z,94.20
2019-06-15T19:01:10.402Z,94.30
2019-06-15T19:03:43.142Z,94.50
2019-06-15T19:06:16.814Z,94.60
2019-06-15T19:08:49.842Z,94.70
2019-06-15T19:11:22.414Z,94.70
2019-06-15T19:13:56.349Z,94.70
2019-06-15T19:16:29.136Z,94.70
2019-06-15T19:19:01.876Z,94.70
2019-06-15T19:21:34.208Z,94.70
2019-06-15T19:24:07.303Z,94.90
2019-06-15T19:26:40.418Z,95.10
2019-06-15T19:29:13.132Z,95.20
2019-06-15T19:31:46.801Z,95.40
2019-06-15T19:34:20.047Z,95.40
2019-06-15T19:36:52.339Z,95.40
2019-06-15T19:39:26.787Z,95.50
2019-06-15T19:41:59.232Z,95.60
2019-06-15T19:44:32.015Z,95.80
2019-06-15T19:47:07.025Z,95.90
2019-06-15T19:49:40.116Z,95.90
2019-06-15T19:52:12.385Z,96.00
2019-06-15T19:54:45.142Z,96.10
2019-06-15T19:57:17.424Z,96.30
2019-06-15T19:59:50.042Z,96.60
2019-06-15T20:02:23.105Z,97.00
2019-06-15T20:05:03.154Z,97.50
2019-06-15T20:07:30.651Z,97.70
2019-06-15T20:10:02.940Z,98.00
2019-06-15T20:12:37.314Z,98.10
2019-06-15T20:15:11.885Z,98.50
2019-06-15T20:17:46.126Z,99.20
2019-06-15T20:20:19.593Z,99.40
2019-06-15T20:22:52.007Z,99.60
2019-06-15T20:25:26.717Z,99.80
2019-06-15T20:27:59.047Z,99.90
2019-06-15T20:30:32.613Z,99.90
2019-06-15T20:33:07.540Z,99.90
2019-06-15T20:35:40.174Z,99.90
2019-06-15T20:38:12.458Z,99.90
2019-06-15T20:40:47.393Z,99.90
2019-06-15T20:43:19.314Z,99.90
2019-06-15T20:45:52.445Z,99.90
2019-06-15T20:48:26.866Z,99.90
2019-06-15T20:50:59.426Z,99.90
2019-06-15T20:53:32.203Z,99.90
2019-06-15T20:56:06.679Z,99.90
2019-06-15T20:58:39.132Z,99.90
2019-06-15T21:01:11.416Z,99.90
2019-06-15T21:03:46.852Z,99.90
2019-06-15T21:06:19.361Z,99.90
2019-06-15T21:08:51.634Z,99.90
2019-06-15T21:11:26.382Z,99.90
2019-06-15T21:13:58.577Z,99.90
2019-06-15T21:16:30.874Z,99.90
2019-06-15T21:19:03.162Z,99.90
2019-06-15T21:21:37.433Z,99.90
2019-06-15T21:24:10.775Z,99.90
2019-06-15T21:26:43.066Z,99.90
2019-06-15T21:29:16.747Z,99.90
2019-06-15T21:31:50.695Z,99.90
2019-06-15T21:34:23.436Z,99.90
2019-06-15T21:36:56.681Z,99.90
2019-06-15T21:39:29.051Z,99.90
2019-06-15T21:42:01.486Z,99.90
2019-06-15T21:44:36.099Z,99.90
2019-06-15T21:47:08.521Z,99.90
2019-06-15T21:49:41.250Z,99.90
2019-06-15T21:52:16.557Z,99.90
2019-06-15T21:54:48.343Z,99.90
2019-06-15T21:57:21.485Z,99.90
2019-06-15T21:59:53.757Z,99.90
2019-06-15T22:02:26.637Z,99.90
2019-06-15T22:04:59.036Z,99.90
2019-06-15T22:07:31.325Z,99.90
2019-06-15T22:10:03.627Z,99.90
2019-06-15T22:12:36.668Z,99.90
2019-06-15T22:15:10.624Z,99.90
2019-06-15T22:17:43.923Z,99.90
2019-06-15T22:20:16.986Z,99.90
2019-06-15T22:22:49.226Z,99.90
2019-06-15T22:25:21.613Z,99.90
2019-06-15T22:27:56.166Z,99.90
2019-06-15T22:30:28.817Z,99.90
2019-06-15T22:33:01.436Z,99.90
2019-06-15T22:35:36.268Z,99.90
2019-06-15T22:38:08.078Z,99.90
2019-06-15T22:40:41.276Z,99.90
2019-06-15T22:43:13.555Z,99.90
2019-06-15T22:45:49.818Z,99.90
2019-06-15T22:48:20.267Z,99.90
2019-06-15T22:50:52.557Z,99.90
2019-06-15T22:53:27.187Z,99.90
2019-06-15T22:55:59.617Z,99.90
2019-06-15T22:58:31.895Z,99.90
2019-06-15T23:01:06.093Z,99.90
2019-06-15T23:03:38.595Z,99.90
2019-06-15T23:06:11.211Z,99.90
2019-06-15T23:08:43.491Z,99.90
2019-06-15T23:11:17.520Z,99.90
2019-06-15T23:13:53.140Z,99.90
2019-06-15T23:16:27.028Z,99.90
2019-06-15T23:18:59.765Z,99.90
2019-06-15T23:21:32.714Z,99.90
2019-06-15T23:24:06.802Z,99.90
2019-06-15T23:26:38.906Z,99.90
2019-06-15T23:29:11.183Z,99.90
2019-06-15T23:31:45.935Z,99.90
2019-06-15T23:34:17.830Z,99.90
2019-06-15T23:36:56.345Z,99.90
2019-06-15T23:39:26.962Z,99.90
2019-06-15T23:41:59.917Z,99.90
2019-06-15T23:44:32.202Z,99.90
2019-06-15T23:47:04.449Z,99.90
2019-06-15T23:49:37.070Z,99.90
2019-06-15T23:52:09.640Z,99.90
2019-06-15T23:54:42.386Z,99.90
2019-06-15T23:57:14.956Z,99.90
2019-06-15T23:59:47.239Z,99.90
